PrentiSS Brown — WDE6848 — position and weather

sailwx.info

Track history (hours):
 
Tides and Currents Weather Stations Pressure Air Temp Water Temp Dewpoint Dewpoint Depression Visibility Wind Speed Wind Dir Waves Ship Positions

PrentiSS Brown

Owner: Port City Marine Services Inc, Muskegon, MI. More information available from US FCC via Universal Licensing System and Coast Guard Vessel Documentation Center.

Last reported at 2017-Mar-29 03:20 UTC. Time now 2017-Mar-30 12:56 UTC.
Position N 44°58' W 086°04'.

; draft 7 m.

Type: Other ship. MMSI: 366922280.

Date/timePositionNaut miles runAvg speedWind from/ knotsBaromVisibWave heightAir tempDewpointWater temp
2017-Mar-29 03:20N 44°58' W 086°04'24 8.6
2017-Mar-29 00:33N 45°13' W 085°38'9 8.6
2017-Mar-28 23:33N 45°17' W 085°27'7 7.2
2017-Mar-28 22:33N 45°19' W 085°17'0 0.4
2017-Mar-28 21:33N 45°19' W 085°18'0 0.0
2017-Mar-28 20:33N 45°19' W 085°18'0 0.0
2017-Mar-28 19:33N 45°19' W 085°18'0 0.0
2017-Mar-28 18:33N 45°19' W 085°18'0 0.0
2017-Mar-28 17:34N 45°19' W 085°18'0 0.0
2017-Mar-28 16:33N 45°19' W 085°18'1 0.8
2017-Mar-28 15:33N 45°20' W 085°17'9 8.5
2017-Mar-28 14:33N 45°17' W 085°29'  
2017-Mar-25 12:33N 45°13' W 085°38'9 8.7
2017-Mar-25 11:33N 45°17' W 085°28'7 7.4
2017-Mar-25 10:33N 45°20' W 085°17'1 0.3
2017-Mar-25 08:33N 45°19' W 085°18'0 0.0
2017-Mar-25 07:33N 45°19' W 085°18'0 0.0
2017-Mar-25 06:33N 45°19' W 085°18'0 0.0
2017-Mar-25 05:33N 45°19' W 085°18'0 0.0
2017-Mar-25 04:33N 45°19' W 085°18'0 0.0
2017-Mar-25 03:33N 45°19' W 085°18'0 0.0
2017-Mar-25 02:33N 45°19' W 085°18'0 0.0
2017-Mar-25 01:33N 45°19' W 085°18'0 0.3
2017-Mar-25 00:33N 45°19' W 085°17'6 5.8
2017-Mar-24 23:33N 45°18' W 085°25'11 9.1
2017-Mar-24 22:22N 45°13' W 085°39'  
Track history (hours):
 
Tides and Currents Weather Stations Pressure Air Temp Water Temp Dewpoint Dewpoint Depression Visibility Wind Speed Wind Dir Waves Ship Positions

PrentiSS Brown

Owner: Port City Marine Services Inc, Muskegon, MI. More information available from US FCC via Universal Licensing System and Coast Guard Vessel Documentation Center.

Last reported at 2017-Mar-29 03:20 UTC. Time now 2017-Mar-30 12:56 UTC.
Position N 44°58' W 086°04'.

; draft 7 m.

Type: Other ship. MMSI: 366922280.

Date/timePositionNaut miles runAvg speedWind from/ knotsBaromVisibWave heightAir tempDewpointWater temp
2017-Mar-29 03:20N 44°58' W 086°04'24 8.6
2017-Mar-29 00:33N 45°13' W 085°38'9 8.6
2017-Mar-28 23:33N 45°17' W 085°27'7 7.2
2017-Mar-28 22:33N 45°19' W 085°17'0 0.4
2017-Mar-28 21:33N 45°19' W 085°18'0 0.0
2017-Mar-28 20:33N 45°19' W 085°18'0 0.0
2017-Mar-28 19:33N 45°19' W 085°18'0 0.0
2017-Mar-28 18:33N 45°19' W 085°18'0 0.0
2017-Mar-28 17:34N 45°19' W 085°18'0 0.0
2017-Mar-28 16:33N 45°19' W 085°18'1 0.8
2017-Mar-28 15:33N 45°20' W 085°17'9 8.5
2017-Mar-28 14:33N 45°17' W 085°29'  
2017-Mar-25 12:33N 45°13' W 085°38'9 8.7
2017-Mar-25 11:33N 45°17' W 085°28'7 7.4
2017-Mar-25 10:33N 45°20' W 085°17'1 0.3
2017-Mar-25 08:33N 45°19' W 085°18'0 0.0
2017-Mar-25 07:33N 45°19' W 085°18'0 0.0
2017-Mar-25 06:33N 45°19' W 085°18'0 0.0
2017-Mar-25 05:33N 45°19' W 085°18'0 0.0
2017-Mar-25 04:33N 45°19' W 085°18'0 0.0
2017-Mar-25 03:33N 45°19' W 085°18'0 0.0
2017-Mar-25 02:33N 45°19' W 085°18'0 0.0
2017-Mar-25 01:33N 45°19' W 085°18'0 0.3
2017-Mar-25 00:33N 45°19' W 085°17'6 5.8
2017-Mar-24 23:33N 45°18' W 085°25'11 9.1
2017-Mar-24 22:22N 45°13' W 085°39'  

Dump ship's entire track history